Time;durP1;ratioP1;P1;durP2;ratioP2;P2;SDS_P1;SDS_P2;PMS_P1;PMS_P2;Temp;Humidity;BMP_temperature;BMP_pressure;BME280_temperature;BME280_humidity;BME280_pressure;Samples;Min_cycle;Max_cycle;Signal;HPM_P1;HPM_P2
2022/03/27 00:00:59;;;;;;;;;;;;;;;;;;4221235;28;1133;-54
2022/03/27 00:03:20;;;;;;;;;;;;;;;;;;4221560;28;1150;-54
2022/03/27 00:05:40;;;;;;;;;;;;;;;;;;4221612;28;977;-54
2022/03/27 00:08:01;;;;;;;;;;;;;;;;;;4220333;28;972;-54
2022/03/27 00:10:22;;;;;;;;;;;;;;;;;;4221633;28;1933;-54
2022/03/27 00:12:42;;;;;;;;;;;;;;;;;;4221378;28;1179;-54
2022/03/27 00:15:03;;;;;;;;;;;;;;;;;;4221592;28;1096;-54
2022/03/27 00:17:23;;;;;;;;;;;;;;;;;;4221826;28;1007;-54
2022/03/27 00:19:44;;;;;;;;;;;;;;;;;;4221607;28;964;-54
2022/03/27 00:22:05;;;;;;;;;;;;;;;;;;4221644;28;1216;-54
2022/03/27 00:24:25;;;;;;;;;;;;;;;;;;4221990;28;773;-54
2022/03/27 00:26:46;;;;;;;;;;;;;;;;;;4221937;28;1021;-54
2022/03/27 00:29:08;;;;;;;;;;;;;;;;;;4220534;28;954;-54
2022/03/27 00:31:35;;;;;;;;;;;;;;;;;;4221462;28;1910;-54
2022/03/27 00:33:56;;;;;;;;;;;;;;;;;;4221337;28;1078;-54
2022/03/27 00:36:16;;;;;;;;;;;;;;;;;;4220319;28;933;-54
2022/03/27 00:38:37;;;;;;;;;;;;;;;;;;4221189;28;1114;-54
2022/03/27 00:40:58;;;;;;;;;;;;;;;;;;4221234;28;1170;-54
2022/03/27 00:43:18;;;;;;;;;;;;;;;;;;4221301;28;996;-55
2022/03/27 00:45:39;;;;;;;;;;;;;;;;;;4221415;28;857;-54
2022/03/27 00:48:00;;;;;;;;;;;;;;;;;;4221289;28;880;-54
2022/03/27 00:50:21;;;;;;;;;;;;;;;;;;4221446;28;1914;-54
2022/03/27 00:52:41;;;;;;;;;;;;;;;;;;4221279;28;1193;-54
2022/03/27 00:55:02;;;;;;;;;;;;;;;;;;4221153;28;911;-54
2022/03/27 00:57:23;;;;;;;;;;;;;;;;;;4221078;28;1005;-54
2022/03/27 00:59:43;;;;;;;;;;;;;;;;;;4221176;28;1294;-54
2022/03/27 01:02:04;;;;;;;;;;;;;;;;;;4200369;28;1512;-54
2022/03/27 01:04:28;;;;;;;;;;;;;;;;;;4202709;28;1231;-54
2022/03/27 01:06:49;;;;;;;;;;;;;;;;;;4203765;28;1009;-54
2022/03/27 01:11:50;;;;;;;;;;;;;;;;;;4203645;28;1909;-55
2022/03/27 01:14:11;;;;;;;;;;;;;;;;;;4203266;28;1110;-54
2022/03/27 01:16:32;;;;;;;;;;;;;;;;;;4203437;28;1226;-55
2022/03/27 01:18:53;;;;;;;;;;;;;;;;;;4203230;28;1019;-54
2022/03/27 01:21:14;;;;;;;;;;;;;;;;;;4202980;28;1038;-54
2022/03/27 01:23:34;;;;;;;;;;;;;;;;;;4203298;28;889;-55
2022/03/27 01:25:55;;;;;;;;;;;;;;;;;;4203625;28;1179;-54
2022/03/27 01:28:16;;;;;;;;;;;;;;;;;;4203091;28;983;-54
2022/03/27 01:30:37;;;;;;;;;;;;;;;;;;4203493;28;1905;-54
2022/03/27 01:32:58;;;;;;;;;;;;;;;;;;4203843;28;1210;-54
2022/03/27 01:35:19;;;;;;;;;;;;;;;;;;4202966;28;926;-54
2022/03/27 01:37:39;;;;;;;;;;;;;;;;;;4203441;28;1130;-56
2022/03/27 01:40:00;;;;;;;;;;;;;;;;;;4202888;28;774;-54
2022/03/27 01:42:20;;;;;;;;;;;;;;;;;;4203135;28;933;-55
2022/03/27 01:44:41;;;;;;;;;;;;;;;;;;4203279;28;956;-54
2022/03/27 01:47:02;;;;;;;;;;;;;;;;;;4203877;28;1293;-54
2022/03/27 01:49:22;;;;;;;;;;;;;;;;;;4203459;28;1200;-54
2022/03/27 01:51:43;;;;;;;;;;;;;;;;;;4203386;28;1909;-54
2022/03/27 01:54:03;;;;;;;;;;;;;;;;;;4203394;28;1090;-54
2022/03/27 01:56:24;;;;;;;;;;;;;;;;;;4203554;28;1032;-54
2022/03/27 01:58:45;;;;;;;;;;;;;;;;;;4203560;28;961;-54
2022/03/27 02:01:06;;;;;;;;;;;;;;;;;;4203410;28;1045;-54
2022/03/27 02:03:28;;;;;;;;;;;;;;;;;;4203185;28;1145;-54
2022/03/27 02:05:49;;;;;;;;;;;;;;;;;;4202992;28;1181;-54
2022/03/27 02:08:10;;;;;;;;;;;;;;;;;;4203341;28;1016;-54
2022/03/27 02:10:31;;;;;;;;;;;;;;;;;;4203129;28;1036;-54
2022/03/27 02:12:52;;;;;;;;;;;;;;;;;;4202781;28;1063;-54
2022/03/27 02:15:13;;;;;;;;;;;;;;;;;;4203357;28;1114;-54
2022/03/27 02:17:33;;;;;;;;;;;;;;;;;;4202996;28;1104;-54
2022/03/27 02:19:54;;;;;;;;;;;;;;;;;;4203518;28;916;-54
2022/03/27 02:22:15;;;;;;;;;;;;;;;;;;4202164;28;1110;-54
2022/03/27 02:24:35;;;;;;;;;;;;;;;;;;4203041;28;958;-55
2022/03/27 02:26:56;;;;;;;;;;;;;;;;;;4202977;28;1037;-54
2022/03/27 02:29:17;;;;;;;;;;;;;;;;;;4203194;28;1011;-54
2022/03/27 02:31:38;;;;;;;;;;;;;;;;;;4202945;28;1906;-54
2022/03/27 02:33:59;;;;;;;;;;;;;;;;;;4203179;28;1019;-54
2022/03/27 02:36:20;;;;;;;;;;;;;;;;;;4202995;28;888;-54
2022/03/27 02:38:40;;;;;;;;;;;;;;;;;;4202816;28;965;-55
2022/03/27 02:41:03;;;;;;;;;;;;;;;;;;4202867;28;1020;-54
2022/03/27 02:43:24;;;;;;;;;;;;;;;;;;4202218;28;1241;-54
2022/03/27 02:45:45;;;;;;;;;;;;;;;;;;4203082;28;837;-54
2022/03/27 02:48:06;;;;;;;;;;;;;;;;;;4203272;28;813;-54
2022/03/27 02:50:27;;;;;;;;;;;;;;;;;;4202793;28;989;-54
2022/03/27 02:52:48;;;;;;;;;;;;;;;;;;4203119;28;1978;-54
2022/03/27 02:55:08;;;;;;;;;;;;;;;;;;4203016;28;1029;-54
2022/03/27 02:57:29;;;;;;;;;;;;;;;;;;4202555;28;1313;-54
2022/03/27 02:59:52;;;;;;;;;;;;;;;;;;4202809;28;1081;-54
2022/03/27 03:02:13;;;;;;;;;;;;;;;;;;4202790;28;984;-54
2022/03/27 03:04:33;;;;;;;;;;;;;;;;;;4202908;28;1207;-54
2022/03/27 03:06:54;;;;;;;;;;;;;;;;;;4202459;28;860;-54
2022/03/27 03:09:15;;;;;;;;;;;;;;;;;;4202862;28;1007;-54
2022/03/27 03:11:35;;;;;;;;;;;;;;;;;;4202302;28;1957;-54
2022/03/27 03:13:56;;;;;;;;;;;;;;;;;;4202265;28;1070;-54
2022/03/27 03:16:17;;;;;;;;;;;;;;;;;;4202412;28;1099;-54
2022/03/27 03:18:37;;;;;;;;;;;;;;;;;;4202745;28;1036;-54
2022/03/27 03:20:58;;;;;;;;;;;;;;;;;;4202179;28;1481;-54
2022/03/27 03:23:19;;;;;;;;;;;;;;;;;;4202461;28;1059;-54
2022/03/27 03:25:40;;;;;;;;;;;;;;;;;;4202741;28;931;-54
2022/03/27 03:28:00;;;;;;;;;;;;;;;;;;4204267;28;974;-55
2022/03/27 03:30:22;;;;;;;;;;;;;;;;;;4203704;28;1113;-54
2022/03/27 03:32:42;;;;;;;;;;;;;;;;;;4205385;28;1984;-54
2022/03/27 03:35:03;;;;;;;;;;;;;;;;;;4205627;28;1195;-54
2022/03/27 03:37:24;;;;;;;;;;;;;;;;;;4205445;28;1201;-54
2022/03/27 03:39:45;;;;;;;;;;;;;;;;;;4205376;28;998;-54
2022/03/27 03:42:06;;;;;;;;;;;;;;;;;;4205236;28;966;-54
2022/03/27 03:44:27;;;;;;;;;;;;;;;;;;4206020;28;997;-54
2022/03/27 03:46:48;;;;;;;;;;;;;;;;;;4205152;28;993;-54
2022/03/27 03:49:08;;;;;;;;;;;;;;;;;;4205144;28;1113;-54
2022/03/27 03:51:29;;;;;;;;;;;;;;;;;;4204976;28;1977;-54
2022/03/27 03:53:50;;;;;;;;;;;;;;;;;;4205283;28;965;-54
2022/03/27 03:56:11;;;;;;;;;;;;;;;;;;4205227;28;1302;-54
2022/03/27 03:58:31;;;;;;;;;;;;;;;;;;4205012;28;988;-54
2022/03/27 04:00:51;;;;;;;;;;;;;;;;;;4204859;28;986;-54
2022/03/27 04:03:13;;;;;;;;;;;;;;;;;;4204720;28;977;-56
2022/03/27 04:05:34;;;;;;;;;;;;;;;;;;4204657;28;967;-54
2022/03/27 04:07:54;;;;;;;;;;;;;;;;;;4204831;28;1160;-54
2022/03/27 04:10:15;;;;;;;;;;;;;;;;;;4204957;28;1156;-54
2022/03/27 04:12:36;;;;;;;;;;;;;;;;;;4204172;28;1981;-54
2022/03/27 04:14:57;;;;;;;;;;;;;;;;;;4204765;28;1096;-55
2022/03/27 04:17:17;;;;;;;;;;;;;;;;;;4204898;28;1093;-55
2022/03/27 04:19:38;;;;;;;;;;;;;;;;;;4203107;28;1207;-55
2022/03/27 04:21:58;;;;;;;;;;;;;;;;;;4204441;28;1283;-54
2022/03/27 04:24:19;;;;;;;;;;;;;;;;;;4204459;28;1181;-54
2022/03/27 04:26:41;;;;;;;;;;;;;;;;;;4204581;28;813;-55
2022/03/27 04:29:02;;;;;;;;;;;;;;;;;;4202945;28;953;-54
2022/03/27 04:31:23;;;;;;;;;;;;;;;;;;4204760;28;1147;-54
2022/03/27 04:33:43;;;;;;;;;;;;;;;;;;4204667;28;1063;-55
2022/03/27 04:36:05;;;;;;;;;;;;;;;;;;4204617;28;1017;-54
2022/03/27 04:38:25;;;;;;;;;;;;;;;;;;4202839;28;1051;-54
2022/03/27 04:40:46;;;;;;;;;;;;;;;;;;4211781;28;1677;-56
2022/03/27 04:43:07;;;;;;;;;;;;;;;;;;4221145;28;1073;-57
2022/03/27 04:45:27;;;;;;;;;;;;;;;;;;4221424;28;1115;-57
2022/03/27 04:47:48;;;;;;;;;;;;;;;;;;4221459;28;946;-57
2022/03/27 04:50:09;;;;;;;;;;;;;;;;;;4221101;28;980;-57
2022/03/27 04:52:29;;;;;;;;;;;;;;;;;;4221179;28;1906;-57
2022/03/27 04:54:50;;;;;;;;;;;;;;;;;;4220934;28;1902;-57
2022/03/27 04:57:11;;;;;;;;;;;;;;;;;;4220821;28;1123;-54
2022/03/27 04:59:32;;;;;;;;;;;;;;;;;;4221298;28;1276;-54
2022/03/27 05:01:53;;;;;;;;;;;;;;;;;;4221021;28;1216;-54
2022/03/27 05:04:13;;;;;;;;;;;;;;;;;;4221046;28;1174;-54
2022/03/27 05:06:34;;;;;;;;;;;;;;;;;;4221492;28;797;-54
2022/03/27 05:08:58;;;;;;;;;;;;;;;;;;4221117;28;820;-54
2022/03/27 05:11:19;;;;;;;;;;;;;;;;;;4220601;28;1316;-54
2022/03/27 05:13:40;;;;;;;;;;;;;;;;;;4221068;28;1906;-54
2022/03/27 05:16:00;;;;;;;;;;;;;;;;;;4221123;28;1136;-53
2022/03/27 05:18:21;;;;;;;;;;;;;;;;;;4220833;28;1119;-54
2022/03/27 05:20:42;;;;;;;;;;;;;;;;;;4221024;28;1186;-54
2022/03/27 05:23:02;;;;;;;;;;;;;;;;;;4220879;28;965;-54
2022/03/27 05:25:23;;;;;;;;;;;;;;;;;;4220497;28;990;-55
2022/03/27 05:27:44;;;;;;;;;;;;;;;;;;4220533;28;1644;-54
2022/03/27 05:30:04;;;;;;;;;;;;;;;;;;4220396;28;845;-54
2022/03/27 05:32:25;;;;;;;;;;;;;;;;;;4220461;28;1905;-57
2022/03/27 05:34:46;;;;;;;;;;;;;;;;;;4220204;28;1337;-54
2022/03/27 05:37:06;;;;;;;;;;;;;;;;;;4219558;28;2176;-55
2022/03/27 05:39:27;;;;;;;;;;;;;;;;;;4217499;28;1848;-54
2022/03/27 05:41:48;;;;;;;;;;;;;;;;;;4217833;28;1704;-54
2022/03/27 05:44:09;;;;;;;;;;;;;;;;;;4220816;28;1033;-55
2022/03/27 05:46:30;;;;;;;;;;;;;;;;;;4220479;28;1280;-54
2022/03/27 05:48:50;;;;;;;;;;;;;;;;;;4220361;28;924;-54
2022/03/27 05:51:11;;;;;;;;;;;;;;;;;;4219885;28;1188;-54
2022/03/27 05:53:32;;;;;;;;;;;;;;;;;;4220571;28;1983;-54
2022/03/27 05:55:52;;;;;;;;;;;;;;;;;;4218215;28;2254;-54
2022/03/27 05:58:13;;;;;;;;;;;;;;;;;;4219030;28;1202;-54
2022/03/27 06:00:34;;;;;;;;;;;;;;;;;;4218623;28;1157;-54
2022/03/27 06:02:55;;;;;;;;;;;;;;;;;;4218833;28;1403;-54
2022/03/27 06:05:17;;;;;;;;;;;;;;;;;;4218970;28;813;-54
2022/03/27 06:07:38;;;;;;;;;;;;;;;;;;4218548;28;995;-54
2022/03/27 06:09:58;;;;;;;;;;;;;;;;;;4218703;28;925;-54
2022/03/27 06:12:19;;;;;;;;;;;;;;;;;;4218001;28;1981;-54
2022/03/27 06:14:40;;;;;;;;;;;;;;;;;;4218782;28;2260;-54
2022/03/27 06:17:00;;;;;;;;;;;;;;;;;;4218880;28;1734;-55
2022/03/27 06:19:21;;;;;;;;;;;;;;;;;;4226622;28;1957;-55
2022/03/27 06:21:43;;;;;;;;;;;;;;;;;;4220678;28;1984;-54
2022/03/27 06:24:04;;;;;;;;;;;;;;;;;;4224501;28;1991;-54
2022/03/27 06:26:24;;;;;;;;;;;;;;;;;;4219825;27;2360;-55
2022/03/27 06:28:45;;;;;;;;;;;;;;;;;;4218080;28;1517;-54
2022/03/27 06:31:05;;;;;;;;;;;;;;;;;;4218577;28;978;-54
2022/03/27 06:33:26;;;;;;;;;;;;;;;;;;4218556;28;1909;-54
2022/03/27 06:35:47;;;;;;;;;;;;;;;;;;4217148;28;1001;-54
2022/03/27 06:38:07;;;;;;;;;;;;;;;;;;4218097;28;1386;-54
2022/03/27 06:40:28;;;;;;;;;;;;;;;;;;4217748;28;1885;-54
2022/03/27 06:42:49;;;;;;;;;;;;;;;;;;4218140;28;1727;-54
2022/03/27 06:45:10;;;;;;;;;;;;;;;;;;4215232;28;1276;-55
2022/03/27 06:47:32;;;;;;;;;;;;;;;;;;4210474;28;1417;-56
2022/03/27 06:49:52;;;;;;;;;;;;;;;;;;4202386;28;1505;-54
2022/03/27 06:52:12;;;;;;;;;;;;;;;;;;4217059;28;2066;-55
2022/03/27 06:54:33;;;;;;;;;;;;;;;;;;4215901;28;1612;-54
2022/03/27 06:56:55;;;;;;;;;;;;;;;;;;4216213;28;1136;-55
2022/03/27 06:59:15;;;;;;;;;;;;;;;;;;4216697;28;999;-54
2022/03/27 07:04:25;;;;;;;;;;;;;;;;;;4162954;28;983;-54
2022/03/27 07:06:46;;;;;;;;;;;;;;;;;;4208042;28;878;-55
2022/03/27 07:09:06;;;;;;;;;;;;;;;;;;4218232;28;1002;-54
2022/03/27 07:11:27;;;;;;;;;;;;;;;;;;4218592;28;1063;-51
2022/03/27 07:13:49;;;;;;;;;;;;;;;;;;4218024;28;1917;-57
2022/03/27 07:16:09;;;;;;;;;;;;;;;;;;4218781;28;841;-58
2022/03/27 07:18:30;;;;;;;;;;;;;;;;;;4216987;28;1237;-56
2022/03/27 07:20:51;;;;;;;;;;;;;;;;;;4217802;28;1131;-57
2022/03/27 07:23:12;;;;;;;;;;;;;;;;;;4218282;28;1094;-57
2022/03/27 07:25:34;;;;;;;;;;;;;;;;;;4217909;28;887;-56
2022/03/27 07:27:55;;;;;;;;;;;;;;;;;;4217890;28;1100;-57
2022/03/27 07:30:15;;;;;;;;;;;;;;;;;;4218253;28;1011;-56
2022/03/27 07:32:36;;;;;;;;;;;;;;;;;;4218083;28;840;-57
2022/03/27 07:34:57;;;;;;;;;;;;;;;;;;4218306;28;1013;-57
2022/03/27 07:37:18;;;;;;;;;;;;;;;;;;4218363;28;987;-56
2022/03/27 07:39:39;;;;;;;;;;;;;;;;;;4218416;28;1146;-54
2022/03/27 07:41:59;;;;;;;;;;;;;;;;;;4217852;28;898;-54
2022/03/27 07:44:21;;;;;;;;;;;;;;;;;;4218329;28;1178;-55
2022/03/27 07:46:46;;;;;;;;;;;;;;;;;;4219263;28;1161;-54
2022/03/27 07:49:08;;;;;;;;;;;;;;;;;;4219418;28;956;-54
2022/03/27 07:51:28;;;;;;;;;;;;;;;;;;4219138;28;1194;-55
2022/03/27 07:53:49;;;;;;;;;;;;;;;;;;4217983;28;2000;-54
2022/03/27 07:56:10;;;;;;;;;;;;;;;;;;4218301;28;1136;-55
2022/03/27 07:58:30;;;;;;;;;;;;;;;;;;4219126;28;828;-54
2022/03/27 08:00:51;;;;;;;;;;;;;;;;;;4219308;28;993;-55
2022/03/27 08:03:12;;;;;;;;;;;;;;;;;;4219195;28;1012;-55
2022/03/27 08:05:33;;;;;;;;;;;;;;;;;;4217753;28;982;-54
2022/03/27 08:07:53;;;;;;;;;;;;;;;;;;4218893;28;980;-54
2022/03/27 08:10:15;;;;;;;;;;;;;;;;;;4217598;28;1146;-54
2022/03/27 08:12:36;;;;;;;;;;;;;;;;;;4218525;28;1169;-56
2022/03/27 08:14:57;;;;;;;;;;;;;;;;;;4219496;28;934;-56
2022/03/27 08:17:17;;;;;;;;;;;;;;;;;;4217783;28;1010;-57
2022/03/27 08:19:38;;;;;;;;;;;;;;;;;;4218417;28;1200;-58
2022/03/27 08:22:00;;;;;;;;;;;;;;;;;;4218603;28;1015;-57
2022/03/27 08:24:20;;;;;;;;;;;;;;;;;;4218287;28;1022;-57
2022/03/27 08:27:00;;;;;;;;;;;;;;;;;;4218218;28;1101;-56
2022/03/27 08:29:21;;;;;;;;;;;;;;;;;;4218847;28;1028;-58
2022/03/27 08:31:42;;;;;;;;;;;;;;;;;;4218477;28;1007;-57
2022/03/27 08:34:03;;;;;;;;;;;;;;;;;;4218940;28;1989;-57
2022/03/27 08:36:23;;;;;;;;;;;;;;;;;;4218487;28;951;-58
2022/03/27 08:38:44;;;;;;;;;;;;;;;;;;4218551;28;921;-56
2022/03/27 08:41:05;;;;;;;;;;;;;;;;;;4218532;28;999;-56
2022/03/27 08:43:26;;;;;;;;;;;;;;;;;;4218366;28;984;-56
2022/03/27 08:45:46;;;;;;;;;;;;;;;;;;4218006;28;933;-57
2022/03/27 08:48:07;;;;;;;;;;;;;;;;;;4217891;28;1026;-56
2022/03/27 08:50:29;;;;;;;;;;;;;;;;;;4217661;28;1341;-57
2022/03/27 08:52:50;;;;;;;;;;;;;;;;;;4201255;28;1040;-57
2022/03/27 08:55:11;;;;;;;;;;;;;;;;;;4211400;28;1767;-56
2022/03/27 08:57:32;;;;;;;;;;;;;;;;;;4214706;28;1976;-57
2022/03/27 08:59:53;;;;;;;;;;;;;;;;;;4215023;28;1590;-57
2022/03/27 09:02:13;;;;;;;;;;;;;;;;;;4215045;28;1310;-57
2022/03/27 09:04:34;;;;;;;;;;;;;;;;;;4215135;28;1727;-56
2022/03/27 09:06:55;;;;;;;;;;;;;;;;;;4218354;28;958;-56
2022/03/27 09:09:16;;;;;;;;;;;;;;;;;;4216332;28;932;-56
2022/03/27 09:11:37;;;;;;;;;;;;;;;;;;4217031;28;1009;-56
2022/03/27 09:13:58;;;;;;;;;;;;;;;;;;4216589;28;1917;-56
2022/03/27 09:16:19;;;;;;;;;;;;;;;;;;4216463;28;992;-55
2022/03/27 09:18:40;;;;;;;;;;;;;;;;;;4215182;28;837;-56
2022/03/27 09:21:02;;;;;;;;;;;;;;;;;;4215700;28;1456;-56
2022/03/27 09:23:22;;;;;;;;;;;;;;;;;;4216445;28;962;-56
2022/03/27 09:25:43;;;;;;;;;;;;;;;;;;4215511;28;1046;-56
2022/03/27 09:28:04;;;;;;;;;;;;;;;;;;4216428;28;1183;-57
2022/03/27 09:30:26;;;;;;;;;;;;;;;;;;4216226;28;945;-56
2022/03/27 09:32:47;;;;;;;;;;;;;;;;;;4215875;28;2004;-56
2022/03/27 09:35:08;;;;;;;;;;;;;;;;;;4216102;28;1977;-56
2022/03/27 09:37:28;;;;;;;;;;;;;;;;;;4215978;28;1111;-56
2022/03/27 09:39:49;;;;;;;;;;;;;;;;;;4217124;28;1274;-56
2022/03/27 09:42:10;;;;;;;;;;;;;;;;;;4216343;28;1166;-56
2022/03/27 09:44:30;;;;;;;;;;;;;;;;;;4215433;28;1371;-56
2022/03/27 09:46:51;;;;;;;;;;;;;;;;;;4213718;28;1013;-57
2022/03/27 09:49:12;;;;;;;;;;;;;;;;;;4218043;28;1138;-56
2022/03/27 09:51:33;;;;;;;;;;;;;;;;;;4217442;28;1227;-56
2022/03/27 09:53:54;;;;;;;;;;;;;;;;;;4208004;28;1918;-57
2022/03/27 09:56:15;;;;;;;;;;;;;;;;;;4215431;28;1247;-56
2022/03/27 09:58:35;;;;;;;;;;;;;;;;;;4217263;28;1397;-57
2022/03/27 10:00:56;;;;;;;;;;;;;;;;;;4217376;28;1224;-56
2022/03/27 10:03:18;;;;;;;;;;;;;;;;;;4217598;28;958;-56
2022/03/27 10:05:38;;;;;;;;;;;;;;;;;;4217098;28;893;-56
2022/03/27 10:07:59;;;;;;;;;;;;;;;;;;4216475;28;1269;-56
2022/03/27 10:10:19;;;;;;;;;;;;;;;;;;4217906;28;938;-57
2022/03/27 10:12:40;;;;;;;;;;;;;;;;;;4216471;28;1775;-58
2022/03/27 10:15:03;;;;;;;;;;;;;;;;;;4214321;28;2376;-58
2022/03/27 10:17:23;;;;;;;;;;;;;;;;;;4208371;28;946;-57
2022/03/27 10:19:44;;;;;;;;;;;;;;;;;;4217234;28;927;-57
2022/03/27 10:22:06;;;;;;;;;;;;;;;;;;4216939;28;938;-55
2022/03/27 10:24:26;;;;;;;;;;;;;;;;;;4216886;28;2060;-55
2022/03/27 10:26:47;;;;;;;;;;;;;;;;;;4216739;28;1474;-55
2022/03/27 10:29:08;;;;;;;;;;;;;;;;;;4216229;28;1840;-55
2022/03/27 10:31:30;;;;;;;;;;;;;;;;;;4200610;28;1125;-55
2022/03/27 10:33:53;;;;;;;;;;;;;;;;;;4200226;28;1906;-57
2022/03/27 10:36:14;;;;;;;;;;;;;;;;;;4200045;28;1048;-56
2022/03/27 10:38:34;;;;;;;;;;;;;;;;;;4213995;28;1348;-56
2022/03/27 10:40:55;;;;;;;;;;;;;;;;;;4220072;28;1156;-55
2022/03/27 10:43:17;;;;;;;;;;;;;;;;;;4203652;28;1234;-55
2022/03/27 10:45:38;;;;;;;;;;;;;;;;;;4203494;28;860;-56
2022/03/27 10:47:58;;;;;;;;;;;;;;;;;;4209382;28;1197;-55
2022/03/27 10:50:20;;;;;;;;;;;;;;;;;;4219655;28;865;-56
2022/03/27 10:52:41;;;;;;;;;;;;;;;;;;4219367;28;981;-55
2022/03/27 10:55:02;;;;;;;;;;;;;;;;;;4219825;28;1922;-56
2022/03/27 10:57:24;;;;;;;;;;;;;;;;;;4219858;28;1009;-57
2022/03/27 10:59:44;;;;;;;;;;;;;;;;;;4219585;28;1101;-56
2022/03/27 11:02:05;;;;;;;;;;;;;;;;;;4220209;28;829;-55
2022/03/27 11:04:27;;;;;;;;;;;;;;;;;;4219984;28;1077;-55
2022/03/27 11:06:48;;;;;;;;;;;;;;;;;;4219437;28;1254;-56
2022/03/27 11:09:09;;;;;;;;;;;;;;;;;;4219492;28;955;-56
2022/03/27 11:11:30;;;;;;;;;;;;;;;;;;4219791;28;1305;-56
2022/03/27 11:13:51;;;;;;;;;;;;;;;;;;4218915;28;1081;-56
2022/03/27 11:16:11;;;;;;;;;;;;;;;;;;4219387;28;950;-55
2022/03/27 11:18:32;;;;;;;;;;;;;;;;;;4219626;28;1320;-55
2022/03/27 11:20:54;;;;;;;;;;;;;;;;;;4218209;28;1031;-57
2022/03/27 11:23:15;;;;;;;;;;;;;;;;;;4219551;28;1270;-55
2022/03/27 11:25:35;;;;;;;;;;;;;;;;;;4219528;28;997;-56
2022/03/27 11:27:56;;;;;;;;;;;;;;;;;;4219301;28;845;-55
2022/03/27 11:30:17;;;;;;;;;;;;;;;;;;4219235;28;978;-56
2022/03/27 11:32:38;;;;;;;;;;;;;;;;;;4219099;28;1017;-56
2022/03/27 11:34:58;;;;;;;;;;;;;;;;;;4218951;28;1980;-56
2022/03/27 11:37:25;;;;;;;;;;;;;;;;;;4218392;28;1449;-55
2022/03/27 11:39:46;;;;;;;;;;;;;;;;;;4218911;28;845;-56
2022/03/27 11:42:06;;;;;;;;;;;;;;;;;;4218730;28;1095;-56
2022/03/27 11:47:06;;;;;;;;;;;;;;;;;;4220618;28;1929;-55
2022/03/27 11:49:26;;;;;;;;;;;;;;;;;;4220698;28;2403;-55
2022/03/27 11:51:47;;;;;;;;;;;;;;;;;;4221045;28;1924;-55
2022/03/27 11:54:08;;;;;;;;;;;;;;;;;;4216373;28;1951;-56
2022/03/27 11:59:22;;;;;;;;;;;;;;;;;;4225824;28;1316;-57
2022/03/27 12:01:42;;;;;;;;;;;;;;;;;;4220525;27;1658;-58
2022/03/27 12:04:03;;;;;;;;;;;;;;;;;;4199985;28;1092;-58
2022/03/27 12:06:24;;;;;;;;;;;;;;;;;;4199616;28;960;-58
2022/03/27 12:08:47;;;;;;;;;;;;;;;;;;4209888;28;2673;-58
2022/03/27 12:11:07;;;;;;;;;;;;;;;;;;4218346;28;995;-58
2022/03/27 12:13:29;;;;;;;;;;;;;;;;;;4218143;28;923;-59
2022/03/27 12:15:50;;;;;;;;;;;;;;;;;;4218424;28;1988;-58
2022/03/27 12:18:26;;;;;;;;;;;;;;;;;;4218937;28;977;-58
2022/03/27 12:20:52;;;;;;;;;;;;;;;;;;4232716;28;1782;-58
2022/03/27 12:23:12;;;;;;;;;;;;;;;;;;4229013;27;1833;-61
2022/03/27 12:25:33;;;;;;;;;;;;;;;;;;4218620;28;964;-58
2022/03/27 12:30:32;;;;;;;;;;;;;;;;;;4220019;28;1047;-58
2022/03/27 12:32:53;;;;;;;;;;;;;;;;;;4220328;28;1155;-58
2022/03/27 12:35:14;;;;;;;;;;;;;;;;;;4224940;28;1985;-58
2022/03/27 12:37:37;;;;;;;;;;;;;;;;;;4217934;28;1684;-58
2022/03/27 12:39:58;;;;;;;;;;;;;;;;;;4216771;28;2033;-59
2022/03/27 12:42:19;;;;;;;;;;;;;;;;;;4215456;28;1545;-60
2022/03/27 12:44:40;;;;;;;;;;;;;;;;;;4216320;28;1774;-59
2022/03/27 12:47:00;;;;;;;;;;;;;;;;;;4215447;28;1833;-60
2022/03/27 12:49:22;;;;;;;;;;;;;;;;;;4215373;28;1888;-59
2022/03/27 12:51:42;;;;;;;;;;;;;;;;;;4216545;28;1745;-59
2022/03/27 12:54:03;;;;;;;;;;;;;;;;;;4214206;28;1455;-59
2022/03/27 12:56:24;;;;;;;;;;;;;;;;;;4216804;28;1906;-59
2022/03/27 12:58:45;;;;;;;;;;;;;;;;;;4217050;28;970;-57
2022/03/27 13:01:06;;;;;;;;;;;;;;;;;;4218989;28;2106;-56
2022/03/27 13:03:27;;;;;;;;;;;;;;;;;;4219438;28;1820;-57
2022/03/27 13:05:49;;;;;;;;;;;;;;;;;;4222109;28;1303;-57
2022/03/27 13:08:09;;;;;;;;;;;;;;;;;;4221310;28;1585;-56
2022/03/27 13:10:30;;;;;;;;;;;;;;;;;;4221628;28;1237;-56
2022/03/27 13:12:50;;;;;;;;;;;;;;;;;;4222470;28;1925;-56
2022/03/27 13:15:11;;;;;;;;;;;;;;;;;;4220067;27;1933;-55
2022/03/27 13:17:32;;;;;;;;;;;;;;;;;;4222797;28;1472;-55
2022/03/27 13:19:53;;;;;;;;;;;;;;;;;;4225701;27;1750;-56
2022/03/27 13:22:14;;;;;;;;;;;;;;;;;;4220683;28;1657;-57
2022/03/27 13:24:35;;;;;;;;;;;;;;;;;;4214025;28;2145;-56
2022/03/27 13:26:57;;;;;;;;;;;;;;;;;;4216896;28;2499;-56
2022/03/27 13:29:18;;;;;;;;;;;;;;;;;;4216252;28;1546;-56
2022/03/27 13:31:39;;;;;;;;;;;;;;;;;;4216876;28;1718;-56
2022/03/27 13:34:00;;;;;;;;;;;;;;;;;;4225295;28;1282;-56
2022/03/27 13:36:21;;;;;;;;;;;;;;;;;;4223083;28;2008;-57
2022/03/27 13:38:42;;;;;;;;;;;;;;;;;;4222186;28;1593;-56
2022/03/27 13:43:40;;;;;;;;;;;;;;;;;;4226482;27;1924;-56
2022/03/27 13:46:02;;;;;;;;;;;;;;;;;;4228906;27;1802;-56
2022/03/27 13:48:22;;;;;;;;;;;;;;;;;;4224141;28;1951;-56
2022/03/27 13:50:43;;;;;;;;;;;;;;;;;;4222470;28;1173;-56
2022/03/27 13:53:04;;;;;;;;;;;;;;;;;;4222808;28;1317;-56
2022/03/27 13:55:24;;;;;;;;;;;;;;;;;;4226413;27;1992;-56
2022/03/27 13:57:45;;;;;;;;;;;;;;;;;;4218350;28;1880;-57
2022/03/27 14:00:06;;;;;;;;;;;;;;;;;;4222854;28;2416;-56
2022/03/27 14:02:31;;;;;;;;;;;;;;;;;;4200490;28;831;-52
2022/03/27 14:04:52;;;;;;;;;;;;;;;;;;4205200;28;1432;-52
2022/03/27 14:07:13;;;;;;;;;;;;;;;;;;4198725;28;1207;-52
2022/03/27 14:09:34;;;;;;;;;;;;;;;;;;4198602;28;1451;-50
2022/03/27 14:11:55;;;;;;;;;;;;;;;;;;4198655;28;1063;-52
2022/03/27 14:14:16;;;;;;;;;;;;;;;;;;4199682;28;1076;-52
2022/03/27 14:16:37;;;;;;;;;;;;;;;;;;4200125;28;1988;-52
2022/03/27 14:18:58;;;;;;;;;;;;;;;;;;4207165;28;1136;-52
2022/03/27 14:21:19;;;;;;;;;;;;;;;;;;4217172;28;1019;-51
2022/03/27 14:23:40;;;;;;;;;;;;;;;;;;4218043;28;1064;-52
2022/03/27 14:26:01;;;;;;;;;;;;;;;;;;4215275;28;1219;-53
2022/03/27 14:28:22;;;;;;;;;;;;;;;;;;4217270;28;1262;-52
2022/03/27 14:30:43;;;;;;;;;;;;;;;;;;4217168;28;1114;-52
2022/03/27 14:33:04;;;;;;;;;;;;;;;;;;4216729;28;1797;-52
2022/03/27 14:35:24;;;;;;;;;;;;;;;;;;4199941;28;2000;-57
2022/03/27 14:37:45;;;;;;;;;;;;;;;;;;4203005;28;1165;-56
2022/03/27 14:40:06;;;;;;;;;;;;;;;;;;4233385;27;1243;-55
2022/03/27 14:42:27;;;;;;;;;;;;;;;;;;4233917;27;1071;-56
2022/03/27 14:44:47;;;;;;;;;;;;;;;;;;4203155;28;1897;-56
2022/03/27 14:47:08;;;;;;;;;;;;;;;;;;4217965;28;1870;-56
2022/03/27 14:49:28;;;;;;;;;;;;;;;;;;4217540;28;1802;-56
2022/03/27 14:51:49;;;;;;;;;;;;;;;;;;4217453;28;1701;-56
2022/03/27 14:56:48;;;;;;;;;;;;;;;;;;4217164;28;1922;-56
2022/03/27 14:59:09;;;;;;;;;;;;;;;;;;4216926;28;1678;-56
2022/03/27 15:01:30;;;;;;;;;;;;;;;;;;4234569;27;2162;-56
2022/03/27 15:03:50;;;;;;;;;;;;;;;;;;4234879;27;1143;-56
2022/03/27 15:06:11;;;;;;;;;;;;;;;;;;4234461;27;1234;-56
2022/03/27 15:08:31;;;;;;;;;;;;;;;;;;4224635;28;1082;-56
2022/03/27 15:10:52;;;;;;;;;;;;;;;;;;4218360;28;1222;-56
2022/03/27 15:13:13;;;;;;;;;;;;;;;;;;4218005;28;950;-56
2022/03/27 15:15:34;;;;;;;;;;;;;;;;;;4217016;28;1983;-57
2022/03/27 15:17:55;;;;;;;;;;;;;;;;;;4215483;28;1643;-56
2022/03/27 15:20:15;;;;;;;;;;;;;;;;;;4217613;28;1713;-56
2022/03/27 15:22:36;;;;;;;;;;;;;;;;;;4217929;28;1612;-56
2022/03/27 15:24:56;;;;;;;;;;;;;;;;;;4218959;28;1150;-56
2022/03/27 15:27:17;;;;;;;;;;;;;;;;;;4220978;28;1954;-56
2022/03/27 15:29:37;;;;;;;;;;;;;;;;;;4220072;28;1832;-56
2022/03/27 15:31:59;;;;;;;;;;;;;;;;;;4220255;28;1094;-56
2022/03/27 15:34:21;;;;;;;;;;;;;;;;;;4220842;28;855;-56
2022/03/27 15:36:42;;;;;;;;;;;;;;;;;;4224128;28;1914;-56
2022/03/27 15:39:02;;;;;;;;;;;;;;;;;;4226468;28;1603;-56
2022/03/27 15:41:23;;;;;;;;;;;;;;;;;;4236802;28;2092;-56
2022/03/27 15:43:45;;;;;;;;;;;;;;;;;;4236276;27;2027;-56
2022/03/27 15:46:07;;;;;;;;;;;;;;;;;;4236825;27;1885;-56
2022/03/27 15:48:27;;;;;;;;;;;;;;;;;;4227329;28;1410;-56
2022/03/27 15:50:48;;;;;;;;;;;;;;;;;;4220861;28;850;-57
2022/03/27 15:53:09;;;;;;;;;;;;;;;;;;4220333;28;1114;-56
2022/03/27 15:55:29;;;;;;;;;;;;;;;;;;4220450;28;1354;-56
2022/03/27 15:57:50;;;;;;;;;;;;;;;;;;4202490;28;962;-56
2022/03/27 16:00:10;;;;;;;;;;;;;;;;;;4203495;28;1067;-56
2022/03/27 16:02:36;;;;;;;;;;;;;;;;;;4204288;28;1576;-56
2022/03/27 16:04:56;;;;;;;;;;;;;;;;;;4217969;28;2005;-56
2022/03/27 16:07:17;;;;;;;;;;;;;;;;;;4220647;28;1778;-56
2022/03/27 16:09:40;;;;;;;;;;;;;;;;;;4217318;28;1583;-56
2022/03/27 16:12:01;;;;;;;;;;;;;;;;;;4219446;28;1297;-56
2022/03/27 16:14:21;;;;;;;;;;;;;;;;;;4220463;28;864;-56
2022/03/27 16:16:42;;;;;;;;;;;;;;;;;;4219817;28;1917;-56
2022/03/27 16:19:02;;;;;;;;;;;;;;;;;;4219004;28;1193;-56
2022/03/27 16:21:23;;;;;;;;;;;;;;;;;;4220023;28;1661;-56
2022/03/27 16:23:45;;;;;;;;;;;;;;;;;;4216642;28;1761;-56
2022/03/27 16:26:06;;;;;;;;;;;;;;;;;;4218140;28;981;-56
2022/03/27 16:28:27;;;;;;;;;;;;;;;;;;4219736;28;1257;-56
2022/03/27 16:30:47;;;;;;;;;;;;;;;;;;4219415;28;1236;-56
2022/03/27 16:33:08;;;;;;;;;;;;;;;;;;4220378;28;877;-56
2022/03/27 16:35:29;;;;;;;;;;;;;;;;;;4219663;28;1119;-57
2022/03/27 16:37:50;;;;;;;;;;;;;;;;;;4219764;28;2077;-56
2022/03/27 16:40:10;;;;;;;;;;;;;;;;;;4227179;28;1291;-56
2022/03/27 16:42:32;;;;;;;;;;;;;;;;;;4236333;28;1583;-57